Time;durP1;ratioP1;P1;durP2;ratioP2;P2;SDS_P1;SDS_P2;PMS_P1;PMS_P2;Temp;Humidity;BMP_temperature;BMP_pressure;BME280_temperature;BME280_humidity;BME280_pressure;Samples;Min_cycle;Max_cycle;Signal;HPM_P1;HPM_P2
2023/02/02 00:01:43;;;;;;;34.75;3.60;;;4.50;91.90;;;;;;4935081;28;20051;-79
2023/02/02 00:04:25;;;;;;;37.20;4.22;;;4.60;91.50;;;;;;4934477;28;20047;-79
2023/02/02 00:06:53;;;;;;;26.10;3.25;;;4.60;90.70;;;;;;4939275;28;20244;-79
2023/02/02 00:09:20;;;;;;;35.75;3.58;;;4.70;90.50;;;;;;4954610;28;20062;-79
2023/02/02 00:11:49;;;;;;;29.30;3.42;;;4.70;90.10;;;;;;4954206;28;20142;-79
2023/02/02 00:14:17;;;;;;;35.58;4.07;;;4.80;89.80;;;;;;4955960;28;20182;-78
2023/02/02 00:16:46;;;;;;;28.90;3.38;;;4.80;89.00;;;;;;4954555;28;20058;-78
2023/02/02 00:19:16;;;;;;;26.08;2.88;;;4.80;89.10;;;;;;4954596;28;20162;-79
2023/02/02 00:21:44;;;;;;;36.45;4.82;;;4.80;89.20;;;;;;4969080;28;20051;-78
2023/02/02 00:24:13;;;;;;;38.65;3.60;;;4.80;89.60;;;;;;4936642;28;20130;-79
2023/02/02 00:26:41;;;;;;;30.48;3.17;;;4.90;89.10;;;;;;4936135;28;20622;-79
2023/02/02 00:29:17;;;;;;;28.48;3.25;;;4.80;89.20;;;;;;4953786;28;20089;-78
2023/02/02 00:31:44;;;;;;;41.28;5.50;;;4.90;89.50;;;;;;4953283;28;20185;-78
2023/02/02 00:34:13;;;;;;;43.17;5.55;;;4.80;89.80;;;;;;4935431;28;20055;-78
2023/02/02 00:36:41;;;;;;;49.40;4.10;;;4.80;90.40;;;;;;4952626;28;20381;-78
2023/02/02 00:39:10;;;;;;;21.65;2.65;;;4.80;89.70;;;;;;4955010;28;20098;-78
2023/02/02 00:41:37;;;;;;;24.80;2.65;;;4.80;89.50;;;;;;4939335;28;20169;-77
2023/02/02 00:46:49;;;;;;;28.42;3.25;;;4.80;89.10;;;;;;4952948;28;21418;-77
2023/02/02 00:49:16;;;;;;;22.80;3.35;;;4.90;88.80;;;;;;4934864;28;20066;-77
2023/02/02 00:51:42;;;;;;;28.10;3.10;;;4.90;88.10;;;;;;4935010;28;20066;-78
2023/02/02 00:54:09;;;;;;;27.50;2.78;;;4.90;88.80;;;;;;4954469;28;20061;-78
2023/02/02 00:56:36;;;;;;;25.88;3.88;;;4.80;88.90;;;;;;4955238;28;20062;-78
2023/02/02 00:59:03;;;;;;;17.65;2.10;;;4.80;89.40;;;;;;4939440;28;20055;-77
2023/02/02 01:01:30;;;;;;;34.28;2.70;;;4.80;89.60;;;;;;4970453;28;20057;-78
2023/02/02 01:03:57;;;;;;;21.77;2.30;;;4.80;89.50;;;;;;4955893;28;20708;-78
2023/02/02 01:06:25;;;;;;;30.55;2.80;;;4.90;87.60;;;;;;4938374;28;20062;-78
2023/02/02 01:08:52;;;;;;;34.50;3.90;;;4.90;87.20;;;;;;4938753;28;20436;-78
2023/02/02 01:11:19;;;;;;;15.70;2.30;;;4.90;87.20;;;;;;4957084;28;20827;-78
2023/02/02 01:13:46;;;;;;;13.75;1.98;;;4.90;87.30;;;;;;4958958;28;20061;-78
2023/02/02 01:16:14;;;;;;;46.83;3.08;;;4.90;87.70;;;;;;4970698;28;21439;-79
2023/02/02 01:18:42;;;;;;;24.55;3.00;;;4.90;87.70;;;;;;4957487;28;20051;-79
2023/02/02 01:21:11;;;;;;;20.50;2.03;;;4.90;86.70;;;;;;4936381;28;20053;-79
2023/02/02 01:23:38;;;;;;;20.67;2.63;;;4.80;87.10;;;;;;4939236;28;20054;-79
2023/02/02 01:26:08;;;;;;;19.85;3.00;;;4.80;86.50;;;;;;4938103;28;20504;-79
2023/02/02 01:28:35;;;;;;;20.77;2.55;;;4.70;86.80;;;;;;4957446;28;20051;-79
2023/02/02 01:31:08;;;;;;;14.70;1.92;;;4.70;86.70;;;;;;4939747;28;20153;-80
2023/02/02 01:33:35;;;;;;;17.65;2.25;;;4.70;86.60;;;;;;4937596;28;20499;-79
2023/02/02 01:36:05;;;;;;;12.52;1.45;;;4.70;86.30;;;;;;4972329;28;20073;-79
2023/02/02 01:38:32;;;;;;;20.40;1.90;;;4.70;86.40;;;;;;4937896;28;20389;-79
2023/02/02 01:40:59;;;;;;;23.63;2.60;;;4.60;87.10;;;;;;4972480;28;20051;-79
2023/02/02 01:43:42;;;;;;;28.17;2.80;;;4.60;86.90;;;;;;4956559;28;20047;-79
2023/02/02 01:46:18;;;;;;;12.63;1.80;;;4.60;87.30;;;;;;4972583;28;20649;-79
2023/02/02 01:48:55;;;;;;;11.75;1.73;;;4.60;86.90;;;;;;4946807;28;20062;-79
2023/02/02 01:51:35;;;;;;;14.48;2.70;;;4.60;87.40;;;;;;4956367;28;20057;-79
2023/02/02 01:54:05;;;;;;;7.93;1.33;;;4.50;87.70;;;;;;4958487;28;20163;-79
2023/02/02 01:56:40;;;;;;;16.20;2.47;;;4.50;87.80;;;;;;4956898;28;20693;-80
2023/02/02 01:59:08;;;;;;;13.02;1.67;;;4.50;87.90;;;;;;4937368;28;20055;-79
2023/02/02 02:01:35;;;;;;;22.45;1.67;;;4.50;88.50;;;;;;4947628;28;20066;-79
2023/02/02 02:04:02;;;;;;;11.50;2.70;;;4.50;87.70;;;;;;4940973;28;20058;-80
2023/02/02 02:06:29;;;;;;;26.05;2.10;;;4.50;88.00;;;;;;4956909;28;20058;-79
2023/02/02 02:09:02;;;;;;;16.55;2.00;;;4.50;88.30;;;;;;4970202;28;20057;-79
2023/02/02 02:11:30;;;;;;;13.70;1.40;;;4.50;87.80;;;;;;4955431;28;20058;-79
2023/02/02 02:17:20;;;;;;;14.95;1.85;;;4.50;87.70;;;;;;4953827;28;20428;-79
2023/02/02 02:26:33;;;;;;;14.15;1.90;;;4.40;87.70;;;;;;4940728;28;20055;-79
2023/02/02 02:29:39;;;;;;;12.43;1.77;;;4.40;87.70;;;;;;4952586;28;20078;-79
2023/02/02 02:32:26;;;;;;;8.65;1.60;;;4.40;88.10;;;;;;4914807;29;20085;-79
2023/02/02 02:35:15;;;;;;;14.88;2.15;;;4.30;88.00;;;;;;4951719;28;20043;-79
2023/02/02 02:38:00;;;;;;;18.02;2.10;;;4.40;87.40;;;;;;4953318;28;20054;-79
2023/02/02 02:40:50;;;;;;;13.07;2.07;;;4.30;88.00;;;;;;4942525;28;20303;-79
2023/02/02 02:43:36;;;;;;;32.30;2.83;;;4.30;88.00;;;;;;4945784;28;20830;-79
2023/02/02 02:46:04;;;;;;;26.88;2.85;;;4.30;87.90;;;;;;4954316;28;20110;-79
2023/02/02 02:48:31;;;;;;;17.92;2.03;;;4.30;87.80;;;;;;4956405;28;20059;-79
2023/02/02 02:51:28;;;;;;;12.80;2.47;;;4.30;87.80;;;;;;4956066;28;20057;-79
2023/02/02 02:53:55;;;;;;;15.48;1.70;;;4.30;87.90;;;;;;4934619;28;20392;-79
2023/02/02 02:56:39;;;;;;;22.65;2.35;;;4.30;88.20;;;;;;4933802;28;20055;-79
2023/02/02 02:59:23;;;;;;;21.70;2.80;;;4.40;87.80;;;;;;4934526;28;20050;-79
2023/02/02 03:02:15;;;;;;;31.23;2.67;;;4.40;88.10;;;;;;4955068;28;20055;-79
2023/02/02 03:04:47;;;;;;;10.27;1.70;;;4.40;87.80;;;;;;4971504;28;20142;-80
2023/02/02 03:07:26;;;;;;;13.73;2.38;;;4.40;87.80;;;;;;4968546;28;20123;-79
2023/02/02 03:09:56;;;;;;;22.55;2.30;;;4.30;87.90;;;;;;4955658;28;20745;-79
2023/02/02 03:12:23;;;;;;;11.43;2.63;;;4.40;86.90;;;;;;4956232;28;20062;-78
2023/02/02 03:14:52;;;;;;;22.92;2.40;;;4.40;87.00;;;;;;4954755;28;20066;-82
2023/02/02 03:17:19;;;;;;;10.32;2.75;;;4.40;87.20;;;;;;4955233;28;20057;-81
2023/02/02 03:19:46;;;;;;;22.58;2.08;;;4.40;86.70;;;;;;4968075;28;20514;-81
2023/02/02 03:22:13;;;;;;;17.65;1.63;;;4.40;86.60;;;;;;4936565;28;20074;-81
2023/02/02 03:24:39;;;;;;;24.13;3.13;;;4.40;87.00;;;;;;4969257;28;20051;-81
2023/02/02 03:27:06;;;;;;;10.65;2.20;;;4.40;87.20;;;;;;4952223;28;20128;-81
2023/02/02 03:29:33;;;;;;;18.63;1.63;;;4.30;87.60;;;;;;4968851;28;20065;-80
2023/02/02 03:32:00;;;;;;;14.65;2.03;;;4.30;87.40;;;;;;4955229;28;20404;-81
2023/02/02 03:34:27;;;;;;;11.32;1.48;;;4.30;87.30;;;;;;4933780;28;20058;-80
2023/02/02 03:36:54;;;;;;;24.08;2.38;;;4.30;87.00;;;;;;4955053;28;20571;-80
2023/02/02 03:39:21;;;;;;;19.83;2.60;;;4.30;87.20;;;;;;4953973;28;20547;-80
2023/02/02 03:41:48;;;;;;;13.52;2.28;;;4.30;86.90;;;;;;4970917;28;20047;-81
2023/02/02 03:44:15;;;;;;;23.73;2.25;;;4.30;87.00;;;;;;4937409;28;20053;-80
2023/02/02 03:46:41;;;;;;;11.93;2.67;;;4.30;87.10;;;;;;4954757;28;20051;-80
2023/02/02 03:49:09;;;;;;;24.00;2.42;;;4.30;87.50;;;;;;4953342;28;20090;-80
2023/02/02 03:51:36;;;;;;;21.55;2.45;;;4.30;87.70;;;;;;4951775;28;20154;-80
2023/02/02 03:54:03;;;;;;;25.90;2.50;;;4.30;87.80;;;;;;4952020;28;20051;-80
2023/02/02 03:56:30;;;;;;;17.70;1.90;;;4.20;88.00;;;;;;4936028;28;20079;-81
2023/02/02 03:58:57;;;;;;;38.35;3.08;;;4.30;88.20;;;;;;4934383;28;20381;-81
2023/02/02 04:01:28;;;;;;;23.83;3.30;;;4.20;88.20;;;;;;4968588;28;20051;-81
2023/02/02 04:03:56;;;;;;;14.13;2.35;;;4.30;87.80;;;;;;4936498;28;20491;-81
2023/02/02 04:06:24;;;;;;;24.42;2.20;;;4.30;87.40;;;;;;4949696;28;20496;-81
2023/02/02 04:08:52;;;;;;;15.95;2.17;;;4.30;86.70;;;;;;4952401;28;20063;-81
2023/02/02 04:11:18;;;;;;;34.35;3.05;;;4.30;86.80;;;;;;4949369;28;20166;-80
2023/02/02 04:13:45;;;;;;;22.60;3.15;;;4.30;86.60;;;;;;4935166;28;20508;-81
2023/02/02 04:16:12;;;;;;;39.80;3.47;;;4.30;85.90;;;;;;4934757;28;20625;-81
2023/02/02 04:18:39;;;;;;;24.30;2.88;;;4.30;85.60;;;;;;4933786;28;20051;-81
2023/02/02 04:21:07;;;;;;;29.55;3.15;;;4.40;85.10;;;;;;4935170;28;20047;-81
2023/02/02 04:23:34;;;;;;;24.40;2.40;;;4.40;85.30;;;;;;4936886;28;21128;-82
2023/02/02 04:26:01;;;;;;;37.33;2.95;;;4.40;85.00;;;;;;4933715;28;20062;-81
2023/02/02 04:28:28;;;;;;;27.23;2.30;;;4.40;84.30;;;;;;4952701;28;21013;-80
2023/02/02 04:30:55;;;;;;;26.52;2.10;;;4.40;84.40;;;;;;4967430;28;21444;-80
2023/02/02 04:33:25;;;;;;;24.92;2.47;;;4.30;84.20;;;;;;4938844;28;20161;-81
2023/02/02 04:35:52;;;;;;;22.35;2.90;;;4.40;84.90;;;;;;4955313;28;20382;-82
2023/02/02 04:38:19;;;;;;;17.17;2.25;;;4.30;84.50;;;;;;4971454;28;20051;-82
2023/02/02 04:40:47;;;;;;;15.20;2.00;;;4.30;84.80;;;;;;4937112;28;20138;-81
2023/02/02 04:43:14;;;;;;;18.15;2.35;;;4.30;83.90;;;;;;4938187;28;20816;-81
2023/02/02 04:45:41;;;;;;;26.55;2.88;;;4.30;83.60;;;;;;4957326;28;20047;-81
2023/02/02 04:48:08;;;;;;;26.60;3.08;;;4.30;83.60;;;;;;4955519;28;20058;-81
2023/02/02 04:50:35;;;;;;;21.30;2.58;;;4.30;83.10;;;;;;4939041;28;20423;-80
2023/02/02 04:53:03;;;;;;;24.38;2.75;;;4.20;83.00;;;;;;4937316;28;20050;-81
2023/02/02 04:55:29;;;;;;;16.85;2.42;;;4.20;83.20;;;;;;4972014;28;20062;-81
2023/02/02 04:57:56;;;;;;;17.23;2.33;;;4.20;83.20;;;;;;4939198;28;20047;-81
2023/02/02 05:00:23;;;;;;;25.75;3.13;;;4.10;83.30;;;;;;4936139;28;20443;-81
2023/02/02 05:02:50;;;;;;;18.63;2.13;;;4.10;83.40;;;;;;4957978;28;20058;-81
2023/02/02 05:05:17;;;;;;;11.95;2.08;;;4.10;83.40;;;;;;4957436;28;20081;-82
2023/02/02 05:07:44;;;;;;;27.20;3.08;;;4.10;83.10;;;;;;4947146;28;20130;-81
2023/02/02 05:10:11;;;;;;;30.65;2.53;;;4.00;83.10;;;;;;4941326;28;20043;-82
2023/02/02 05:12:38;;;;;;;17.67;2.30;;;4.00;82.70;;;;;;4938245;28;20069;-81
2023/02/02 05:15:05;;;;;;;18.48;2.45;;;4.00;82.80;;;;;;4941041;28;20070;-82
2023/02/02 05:17:32;;;;;;;19.20;2.05;;;3.90;82.90;;;;;;4970541;28;20073;-82
2023/02/02 05:19:59;;;;;;;19.10;2.78;;;3.90;83.10;;;;;;4971272;28;20059;-81
2023/02/02 05:22:26;;;;;;;19.55;2.42;;;3.90;83.00;;;;;;4940049;28;20539;-82
2023/02/02 05:24:53;;;;;;;26.70;2.72;;;3.80;82.80;;;;;;4939625;28;20058;-82
2023/02/02 05:27:20;;;;;;;12.18;1.63;;;3.90;82.90;;;;;;4958125;28;20404;-82
2023/02/02 05:29:47;;;;;;;25.75;3.00;;;3.90;82.60;;;;;;4969648;28;20192;-82
2023/02/02 05:32:14;;;;;;;17.50;1.42;;;3.90;82.60;;;;;;4936743;28;20059;-82
2023/02/02 05:34:41;;;;;;;15.85;1.73;;;3.90;82.50;;;;;;4937836;28;20069;-82
2023/02/02 05:37:08;;;;;;;24.52;2.35;;;3.90;82.50;;;;;;4935928;28;20049;-82
2023/02/02 05:39:34;;;;;;;10.68;2.20;;;3.90;82.60;;;;;;4935583;28;20065;-82
2023/02/02 05:42:01;;;;;;;38.33;7.25;;;3.90;82.10;;;;;;4954721;28;20053;-82
2023/02/02 05:44:28;;;;;;;49.28;19.63;;;3.90;82.10;;;;;;4956443;28;20054;-82
2023/02/02 05:46:55;;;;;;;21.23;3.17;;;3.80;82.40;;;;;;4938632;28;20062;-82
2023/02/02 05:49:22;;;;;;;15.20;2.40;;;3.80;82.90;;;;;;4935213;28;20051;-81
2023/02/02 05:51:55;;;;;;;24.95;2.22;;;3.80;82.00;;;;;;4970295;28;20577;-81
2023/02/02 05:54:23;;;;;;;27.25;3.60;;;3.80;82.00;;;;;;4949595;28;20077;-82
2023/02/02 05:56:52;;;;;;;23.08;2.25;;;3.70;82.80;;;;;;4938572;28;20456;-81
2023/02/02 05:59:19;;;;;;;40.10;4.05;;;3.60;82.90;;;;;;4953468;28;20055;-82
2023/02/02 06:01:46;;;;;;;21.83;2.35;;;3.60;83.20;;;;;;4936101;28;20051;-82
2023/02/02 06:04:14;;;;;;;29.55;2.78;;;3.50;83.80;;;;;;4954112;28;20507;-83
2023/02/02 06:06:41;;;;;;;24.88;2.25;;;3.50;84.00;;;;;;4938206;28;20051;-83
2023/02/02 06:09:08;;;;;;;27.20;2.60;;;3.40;84.20;;;;;;4939985;28;20677;-82
2023/02/02 06:11:35;;;;;;;25.65;2.83;;;3.40;83.90;;;;;;4938922;28;20059;-82
2023/02/02 06:14:02;;;;;;;25.80;3.50;;;3.30;84.20;;;;;;4937860;28;20058;-81
2023/02/02 06:16:29;;;;;;;24.63;2.17;;;3.30;84.40;;;;;;4936219;28;20042;-79
2023/02/02 06:18:56;;;;;;;17.98;1.95;;;3.30;84.10;;;;;;4955964;28;20164;-87
2023/02/02 06:21:23;;;;;;;12.80;1.95;;;3.40;83.70;;;;;;4953046;28;20061;-78
2023/02/02 06:23:51;;;;;;;21.88;2.65;;;3.40;83.50;;;;;;4935252;28;20149;-80
2023/02/02 06:26:18;;;;;;;18.00;1.73;;;3.40;83.70;;;;;;4954476;28;20054;-82
2023/02/02 06:28:53;;;;;;;18.35;1.95;;;3.40;83.60;;;;;;4934966;28;20440;-77
2023/02/02 06:31:20;;;;;;;19.40;2.53;;;3.30;83.90;;;;;;4951737;28;20094;-80
2023/02/02 06:33:53;;;;;;;19.63;1.80;;;3.40;83.80;;;;;;4953672;28;20050;-78
2023/02/02 06:36:20;;;;;;;21.98;1.88;;;3.40;84.40;;;;;;4937220;28;20058;-79
2023/02/02 06:38:51;;;;;;;18.67;1.90;;;3.30;84.80;;;;;;4955119;28;20069;-81
2023/02/02 06:41:19;;;;;;;16.27;2.65;;;3.40;84.90;;;;;;4936121;28;20062;-80
2023/02/02 06:43:46;;;;;;;14.98;2.08;;;3.40;84.80;;;;;;4938313;28;20065;-81
2023/02/02 06:46:14;;;;;;;34.15;2.33;;;3.40;85.30;;;;;;4936998;28;20054;-80
2023/02/02 06:48:41;;;;;;;21.88;4.05;;;3.40;85.50;;;;;;4932993;28;20062;-81
2023/02/02 06:51:08;;;;;;;18.20;2.50;;;3.50;85.80;;;;;;4954493;28;20061;-80
2023/02/02 06:53:35;;;;;;;24.65;2.83;;;3.50;85.50;;;;;;4951234;28;20065;-80
2023/02/02 06:56:05;;;;;;;16.38;1.98;;;3.50;85.60;;;;;;4933399;28;20055;-80
2023/02/02 06:58:32;;;;;;;15.63;2.10;;;3.50;85.90;;;;;;4953115;28;20051;-80
2023/02/02 07:01:08;;;;;;;19.80;2.45;;;3.50;86.20;;;;;;4966308;28;20058;-80
2023/02/02 07:03:35;;;;;;;19.30;2.67;;;3.50;86.30;;;;;;4933269;28;20054;-80
2023/02/02 07:06:16;;;;;;;20.80;2.08;;;3.50;86.70;;;;;;4935869;28;20449;-80
2023/02/02 07:08:44;;;;;;;14.40;2.15;;;3.50;86.90;;;;;;4939781;28;20523;-80
2023/02/02 07:11:17;;;;;;;14.30;2.25;;;3.50;87.20;;;;;;4939406;28;20046;-80
2023/02/02 07:13:45;;;;;;;22.73;2.65;;;3.40;87.60;;;;;;4937948;28;20477;-80
2023/02/02 07:16:13;;;;;;;25.92;2.53;;;3.40;88.00;;;;;;4936135;28;20689;-80
2023/02/02 07:18:43;;;;;;;17.38;2.40;;;3.40;88.70;;;;;;4938741;28;20061;-80
2023/02/02 07:21:17;;;;;;;19.23;2.95;;;3.50;88.40;;;;;;4936835;28;20801;-80
2023/02/02 07:23:44;;;;;;;32.00;2.83;;;3.50;88.80;;;;;;4968775;28;20189;-80
2023/02/02 07:26:13;;;;;;;13.27;1.92;;;3.50;88.70;;;;;;4937911;28;20066;-80
2023/02/02 07:28:40;;;;;;;32.50;2.92;;;3.50;88.80;;;;;;4934631;28;20047;-80
2023/02/02 07:31:19;;;;;;;21.25;2.42;;;3.60;88.80;;;;;;4954147;28;20054;-80
2023/02/02 07:33:47;;;;;;;16.20;2.25;;;3.60;88.70;;;;;;4954224;28;20051;-80
2023/02/02 07:36:17;;;;;;;28.27;3.00;;;3.60;88.60;;;;;;4934792;28;20058;-80
2023/02/02 07:38:46;;;;;;;16.42;3.17;;;3.50;88.40;;;;;;4933826;28;20612;-80
2023/02/02 07:41:14;;;;;;;15.15;2.45;;;3.50;88.70;;;;;;4955222;28;20607;-80
2023/02/02 07:43:41;;;;;;;22.50;2.70;;;3.50;89.10;;;;;;4954509;28;20105;-80
2023/02/02 07:46:11;;;;;;;22.92;3.35;;;3.50;89.70;;;;;;4939051;28;20062;-80
2023/02/02 07:48:39;;;;;;;28.23;3.00;;;3.50;88.90;;;;;;4947249;28;20119;-80
2023/02/02 07:51:10;;;;;;;19.95;2.45;;;3.50;88.30;;;;;;4962780;28;20076;-80
2023/02/02 07:53:37;;;;;;;13.70;2.15;;;3.50;88.80;;;;;;4948337;28;20061;-80
2023/02/02 07:56:25;;;;;;;18.25;3.20;;;3.50;89.40;;;;;;4947340;28;20085;-80
2023/02/02 07:58:53;;;;;;;27.42;2.13;;;3.50;89.90;;;;;;4954473;28;20055;-80
2023/02/02 08:01:21;;;;;;;26.35;2.50;;;3.50;89.50;;;;;;4952005;28;20059;-80
2023/02/02 08:03:49;;;;;;;22.60;3.08;;;3.60;90.00;;;;;;4962575;28;20058;-80
2023/02/02 08:06:21;;;;;;;24.40;2.63;;;3.70;89.60;;;;;;4963741;28;20109;-80
2023/02/02 08:08:48;;;;;;;17.38;3.08;;;3.70;89.00;;;;;;4983829;28;20499;-80
2023/02/02 08:11:17;;;;;;;15.60;2.20;;;3.70;88.50;;;;;;4957078;28;20058;-80
2023/02/02 08:13:48;;;;;;;16.83;2.58;;;3.70;88.60;;;;;;4951888;28;20402;-79
2023/02/02 08:16:15;;;;;;;15.90;1.95;;;3.80;88.70;;;;;;4950601;28;20636;-79
2023/02/02 08:18:42;;;;;;;17.80;2.47;;;3.80;89.40;;;;;;4968057;28;20058;-80
2023/02/02 08:21:10;;;;;;;18.73;2.08;;;3.80;89.00;;;;;;4964404;28;20051;-80
2023/02/02 08:23:38;;;;;;;21.38;2.63;;;3.90;89.50;;;;;;4954981;28;20138;-80
2023/02/02 08:26:08;;;;;;;19.63;2.33;;;3.90;88.80;;;;;;4952486;28;20047;-79
2023/02/02 08:28:36;;;;;;;23.67;2.33;;;4.00;88.90;;;;;;4955414;28;20396;-79
2023/02/02 08:31:08;;;;;;;20.92;2.22;;;4.00;89.30;;;;;;4952242;28;20054;-79
2023/02/02 08:33:35;;;;;;;26.33;2.70;;;4.00;88.80;;;;;;4950794;28;20050;-79
2023/02/02 08:36:03;;;;;;;16.23;2.03;;;4.10;89.40;;;;;;4964982;28;20055;-79
2023/02/02 08:38:30;;;;;;;20.40;2.38;;;4.10;89.40;;;;;;4967725;28;20163;-79
2023/02/02 08:41:04;;;;;;;28.85;3.70;;;4.10;90.70;;;;;;4950561;28;20043;-79
2023/02/02 08:43:31;;;;;;;19.05;1.98;;;4.20;90.40;;;;;;4945721;28;20057;-79
2023/02/02 08:45:58;;;;;;;29.63;2.30;;;4.20;89.90;;;;;;4966526;28;20050;-79
2023/02/02 08:48:31;;;;;;;29.67;2.80;;;4.30;89.30;;;;;;4967515;28;20062;-79
2023/02/02 08:50:58;;;;;;;32.08;3.42;;;4.30;89.10;;;;;;4951679;28;20047;-80
2023/02/02 08:53:26;;;;;;;19.13;2.25;;;4.30;89.20;;;;;;4949900;28;20078;-80
2023/02/02 08:55:59;;;;;;;28.63;2.53;;;4.30;88.80;;;;;;4955358;28;20058;-79
2023/02/02 08:58:27;;;;;;;15.57;2.53;;;4.30;88.70;;;;;;4954477;28;20039;-79
2023/02/02 09:00:54;;;;;;;31.45;2.72;;;4.20;88.40;;;;;;4968699;28;20073;-78
2023/02/02 09:03:21;;;;;;;40.72;2.80;;;4.30;88.40;;;;;;4984580;28;20423;-79
2023/02/02 09:05:48;;;;;;;33.72;4.18;;;4.30;88.50;;;;;;4953684;28;20407;-79
2023/02/02 09:08:15;;;;;;;18.77;2.42;;;4.50;87.80;;;;;;4955072;28;20055;-79
2023/02/02 09:10:42;;;;;;;17.02;2.92;;;4.50;86.90;;;;;;4951028;28;20078;-79
2023/02/02 09:13:09;;;;;;;28.80;4.07;;;4.50;87.20;;;;;;4951526;28;20093;-79
2023/02/02 09:15:37;;;;;;;16.27;3.03;;;4.50;86.40;;;;;;4958670;28;20051;-79
2023/02/02 09:18:04;;;;;;;16.50;2.78;;;4.50;86.40;;;;;;4952239;28;20065;-78
2023/02/02 09:20:31;;;;;;;28.17;3.38;;;4.40;86.70;;;;;;4950415;28;20059;-78
2023/02/02 09:22:58;;;;;;;12.85;2.78;;;4.30;86.80;;;;;;4949593;28;20046;-78
2023/02/02 09:25:26;;;;;;;26.13;3.30;;;4.30;86.10;;;;;;4969107;28;20428;-78
2023/02/02 09:27:55;;;;;;;15.82;2.25;;;4.30;86.80;;;;;;4951074;28;20121;-78
2023/02/02 09:30:22;;;;;;;17.70;3.92;;;4.30;87.30;;;;;;4969366;28;20066;-79
2023/02/02 09:32:49;;;;;;;12.60;1.75;;;4.30;86.20;;;;;;4950854;28;20050;-78
2023/02/02 09:35:16;;;;;;;15.07;2.58;;;4.30;87.20;;;;;;4954912;28;20059;-80
2023/02/02 09:37:44;;;;;;;23.95;3.00;;;4.30;86.70;;;;;;4951545;28;20085;-79
2023/02/02 09:40:19;;;;;;;15.05;2.10;;;4.40;85.60;;;;;;4956346;28;20047;-79
2023/02/02 09:42:58;;;;;;;14.07;2.50;;;4.40;82.60;;;;;;4969006;28;20042;-78
2023/02/02 09:45:50;;;;;;;11.45;2.20;;;4.30;82.30;;;;;;4997288;28;20051;-78
2023/02/02 09:48:33;;;;;;;12.40;1.70;;;4.30;84.80;;;;;;4961012;28;20089;-78
2023/02/02 09:51:24;;;;;;;12.52;1.67;;;4.40;82.50;;;;;;4953783;28;20054;-78
2023/02/02 09:54:03;;;;;;;8.07;1.60;;;4.50;81.90;;;;;;4984142;28;20436;-79
2023/02/02 09:56:56;;;;;;;8.45;1.42;;;4.30;82.00;;;;;;4979178;28;20595;-79
2023/02/02 09:59:32;;;;;;;8.82;2.13;;;4.30;82.90;;;;;;4942641;28;20575;-78
2023/02/02 10:02:12;;;;;;;7.32;1.63;;;4.50;82.80;;;;;;4950602;28;20055;-79
2023/02/02 10:04:43;;;;;;;10.18;1.75;;;4.60;81.40;;;;;;4951467;28;20054;-79
2023/02/02 10:07:18;;;;;;;9.00;1.52;;;4.60;79.90;;;;;;4967859;28;20065;-78
2023/02/02 10:10:25;;;;;;;5.47;2.47;;;4.50;81.90;;;;;;4947397;28;20060;-79
2023/02/02 10:12:52;;;;;;;15.32;1.63;;;4.20;79.60;;;;;;4954449;28;20053;-78
2023/02/02 10:15:43;;;;;;;10.15;1.80;;;4.10;81.50;;;;;;4968267;28;20055;-78
2023/02/02 10:18:28;;;;;;;11.90;1.75;;;4.40;82.50;;;;;;4966294;28;20085;-78
2023/02/02 10:21:01;;;;;;;7.13;1.55;;;4.60;79.00;;;;;;4948889;28;20058;-79
2023/02/02 10:23:37;;;;;;;18.00;2.35;;;4.60;80.50;;;;;;4946124;28;20133;-78
2023/02/02 10:26:14;;;;;;;9.15;2.15;;;5.20;80.90;;;;;;4956551;28;20574;-79
2023/02/02 10:29:11;;;;;;;9.02;2.20;;;5.60;80.30;;;;;;4961046;28;20081;-79
2023/02/02 10:31:41;;;;;;;10.35;2.20;;;6.40;75.40;;;;;;4941843;28;20440;-79
2023/02/02 10:34:14;;;;;;;10.30;2.83;;;6.50;75.10;;;;;;4964930;28;20058;-78
2023/02/02 10:36:48;;;;;;;15.55;2.40;;;6.10;75.40;;;;;;4952529;28;20408;-78
2023/02/02 10:39:36;;;;;;;12.40;3.45;;;5.70;76.70;;;;;;4957599;28;20865;-78
2023/02/02 10:42:12;;;;;;;8.50;2.17;;;5.70;76.90;;;;;;4962250;28;20050;-79
2023/02/02 10:44:39;;;;;;;12.38;3.03;;;5.60;79.70;;;;;;4951467;28;20058;-78
2023/02/02 10:47:14;;;;;;;9.18;2.40;;;5.30;77.10;;;;;;4956091;28;20131;-78
2023/02/02 10:49:41;;;;;;;;;;;5.20;79.10;;;;;;4955314;28;20583;-79
2023/02/02 10:52:17;;;;;;;10.65;3.20;;;5.30;78.10;;;;;;4954148;28;19930;-79
2023/02/02 10:54:58;;;;;;;6.32;1.75;;;6.20;78.30;;;;;;4970475;28;20462;-78
2023/02/02 10:57:38;;;;;;;10.60;2.38;;;7.10;71.20;;;;;;4953719;28;20058;-78
2023/02/02 11:00:36;;;;;;;14.15;2.75;;;7.30;73.00;;;;;;4954706;28;20118;-79
2023/02/02 11:03:05;;;;;;;16.05;2.67;;;7.10;72.50;;;;;;4949665;28;20129;-78
2023/02/02 11:08:47;;;;;;;4.40;1.92;;;7.70;70.40;;;;;;4965393;28;20061;-78
2023/02/02 11:11:28;;;;;;;6.70;2.40;;;7.70;69.00;;;;;;4954313;28;20061;-78
2023/02/02 11:14:02;;;;;;;9.00;1.88;;;7.50;69.30;;;;;;4945599;28;20377;-79
2023/02/02 11:16:31;;;;;;;9.98;1.25;;;7.20;68.80;;;;;;4966509;28;20082;-80
2023/02/02 11:19:18;;;;;;;16.02;2.53;;;6.60;71.60;;;;;;4949873;28;20055;-79
2023/02/02 11:21:52;;;;;;;9.15;1.92;;;6.50;72.60;;;;;;4943778;28;20055;-79
2023/02/02 11:24:27;;;;;;;7.20;1.60;;;6.40;71.90;;;;;;4962082;28;20055;-78
2023/02/02 11:27:18;;;;;;;6.53;1.70;;;6.30;72.60;;;;;;4955857;28;20482;-79
2023/02/02 11:29:51;;;;;;;10.95;1.70;;;6.40;74.50;;;;;;4971052;28;20153;-79
2023/02/02 11:32:24;;;;;;;10.40;1.80;;;7.20;71.10;;;;;;4963880;28;20051;-79
2023/02/02 11:35:07;;;;;;;7.43;1.50;;;7.20;68.20;;;;;;4963826;28;20150;-79
2023/02/02 11:37:48;;;;;;;13.35;2.22;;;6.80;71.30;;;;;;4984100;28;20057;-79
2023/02/02 11:40:29;;;;;;;7.25;1.52;;;7.00;70.90;;;;;;4983226;28;20079;-79
2023/02/02 11:43:17;;;;;;;12.88;2.78;;;6.80;69.60;;;;;;4963141;28;20518;-79
2023/02/02 11:45:48;;;;;;;12.55;1.95;;;6.60;70.60;;;;;;4949940;28;20076;-79
2023/02/02 11:48:21;;;;;;;10.55;1.42;;;6.70;71.50;;;;;;4947579;28;20059;-79
2023/02/02 11:50:54;;;;;;;7.00;2.15;;;6.60;72.00;;;;;;4947721;28;20065;-79
2023/02/02 11:53:26;;;;;;;8.10;1.27;;;6.30;71.00;;;;;;4946942;28;20791;-79
2023/02/02 11:55:55;;;;;;;8.50;1.27;;;6.40;71.40;;;;;;4973825;28;20436;-79
2023/02/02 11:58:41;;;;;;;4.68;1.33;;;6.30;70.60;;;;;;4974894;28;20043;-79
2023/02/02 12:01:29;;;;;;;6.47;1.20;;;5.80;71.30;;;;;;4950364;28;20059;-79
2023/02/02 12:03:58;;;;;;;9.57;1.42;;;5.80;72.10;;;;;;4963945;28;20047;-79
2023/02/02 12:06:36;;;;;;;4.57;1.45;;;5.70;74.10;;;;;;4949329;28;20054;-78
2023/02/02 12:09:25;;;;;;;8.30;1.25;;;5.90;75.10;;;;;;4952647;28;20069;-79
2023/02/02 12:12:12;;;;;;;7.25;1.42;;;5.90;73.80;;;;;;4945095;28;20059;-79
2023/02/02 12:14:53;;;;;;;4.82;1.67;;;6.00;72.50;;;;;;4962454;28;20054;-78
2023/02/02 12:17:39;;;;;;;11.75;1.30;;;6.00;72.40;;;;;;4947494;28;20061;-79
2023/02/02 12:20:35;;;;;;;6.05;1.30;;;6.00;72.70;;;;;;4983043;28;20073;-79
2023/02/02 12:23:18;;;;;;;4.90;1.17;;;5.80;73.60;;;;;;4964170;28;20074;-79
2023/02/02 12:25:57;;;;;;;7.50;1.45;;;5.90;74.00;;;;;;4963146;28;20804;-79
2023/02/02 12:28:24;;;;;;;13.55;2.90;;;6.10;72.80;;;;;;4983002;28;20531;-79
2023/02/02 12:31:16;;;;;;;11.43;2.63;;;6.30;71.60;;;;;;4960912;28;20408;-78
2023/02/02 12:34:10;;;;;;;6.85;1.88;;;6.40;71.20;;;;;;4974447;28;20055;-79
2023/02/02 12:36:46;;;;;;;9.02;1.85;;;6.30;73.50;;;;;;4944621;28;20058;-79
2023/02/02 12:39:36;;;;;;;4.35;1.10;;;6.30;71.30;;;;;;4981431;28;20050;-79
2023/02/02 12:42:27;;;;;;;3.85;1.33;;;5.90;69.80;;;;;;4949200;28;20125;-80
2023/02/02 12:45:39;;;;;;;5.25;1.27;;;5.80;72.50;;;;;;4948688;28;20481;-79
2023/02/02 12:48:42;;;;;;;11.23;1.65;;;6.00;73.00;;;;;;4948121;28;20503;-79
2023/02/02 12:51:34;;;;;;;4.85;1.35;;;6.20;70.10;;;;;;4952221;28;20400;-78
2023/02/02 12:54:13;;;;;;;6.82;1.27;;;5.60;70.80;;;;;;4946942;28;20050;-78
2023/02/02 12:57:20;;;;;;;10.82;1.33;;;5.60;71.20;;;;;;4953257;28;20859;-78
2023/02/02 13:00:12;;;;;;;3.78;1.20;;;5.80;71.40;;;;;;4980276;28;20561;-79
2023/02/02 13:03:06;;;;;;;6.82;1.42;;;5.80;72.70;;;;;;4982411;28;20053;-79
2023/02/02 13:05:39;;;;;;;6.57;1.33;;;6.50;72.30;;;;;;4962038;28;20051;-79
2023/02/02 13:08:14;;;;;;;6.78;0.90;;;7.30;69.50;;;;;;4947196;28;20070;-79
2023/02/02 13:10:46;;;;;;;2.95;0.82;;;7.50;67.40;;;;;;4955788;28;20049;-79
2023/02/02 13:13:15;;;;;;;5.00;1.08;;;8.20;65.40;;;;;;4968373;28;20058;-79
2023/02/02 13:15:46;;;;;;;5.75;1.23;;;8.80;63.70;;;;;;4965067;28;20055;-80
2023/02/02 13:18:26;;;;;;;9.40;2.10;;;9.20;62.00;;;;;;4947296;28;20584;-80
2023/02/02 13:21:15;;;;;;;3.90;0.93;;;9.50;61.40;;;;;;4909095;28;1205089;-80
2023/02/02 13:23:49;;;;;;;3.58;1.08;;;9.60;61.70;;;;;;4967033;28;20058;-80
2023/02/02 13:26:33;;;;;;;5.43;1.25;;;8.70;62.10;;;;;;4966052;28;20047;-80
2023/02/02 13:29:23;;;;;;;6.00;0.98;;;8.30;62.90;;;;;;4982742;28;20050;-80
2023/02/02 13:32:13;;;;;;;9.63;1.65;;;8.50;63.20;;;;;;4950495;28;20058;-80